sensor_id;sensor_type;location;lat;lon;timestamp;temperature;humidity
23122;DHT22;11730;51.248;22.534;2022-08-03T00:01:37;21.20;93.20
23122;DHT22;11730;51.248;22.534;2022-08-03T00:04:05;21.20;93.20
23122;DHT22;11730;51.248;22.534;2022-08-03T00:06:32;21.20;93.20
23122;DHT22;11730;51.248;22.534;2022-08-03T00:09:04;21.10;93.40
23122;DHT22;11730;51.248;22.534;2022-08-03T00:11:31;21.20;93.50
23122;DHT22;11730;51.248;22.534;2022-08-03T00:13:58;21.20;93.00
23122;DHT22;11730;51.248;22.534;2022-08-03T00:16:25;21.30;92.80
23122;DHT22;11730;51.248;22.534;2022-08-03T00:18:52;21.30;92.70
23122;DHT22;11730;51.248;22.534;2022-08-03T00:21:19;21.30;92.60
23122;DHT22;11730;51.248;22.534;2022-08-03T00:23:46;21.30;92.50
23122;DHT22;11730;51.248;22.534;2022-08-03T00:26:19;21.20;92.50
23122;DHT22;11730;51.248;22.534;2022-08-03T00:28:46;21.30;92.20
23122;DHT22;11730;51.248;22.534;2022-08-03T00:31:13;21.30;92.10
23122;DHT22;11730;51.248;22.534;2022-08-03T00:33:40;21.20;92.10
23122;DHT22;11730;51.248;22.534;2022-08-03T00:36:27;21.10;92.30
23122;DHT22;11730;51.248;22.534;2022-08-03T00:38:55;21.20;92.40
23122;DHT22;11730;51.248;22.534;2022-08-03T00:41:22;21.10;92.40
23122;DHT22;11730;51.248;22.534;2022-08-03T00:43:49;21.10;92.60
23122;DHT22;11730;51.248;22.534;2022-08-03T00:46:16;21.10;92.60
23122;DHT22;11730;51.248;22.534;2022-08-03T00:48:50;21.10;92.30
23122;DHT22;11730;51.248;22.534;2022-08-03T00:51:19;21.10;92.20
23122;DHT22;11730;51.248;22.534;2022-08-03T00:53:47;21.00;92.30
23122;DHT22;11730;51.248;22.534;2022-08-03T00:56:15;20.90;92.30
23122;DHT22;11730;51.248;22.534;2022-08-03T00:58:44;21.10;92.10
23122;DHT22;11730;51.248;22.534;2022-08-03T01:01:11;21.10;92.30
23122;DHT22;11730;51.248;22.534;2022-08-03T01:03:39;21.20;92.30
23122;DHT22;11730;51.248;22.534;2022-08-03T01:06:10;21.20;92.40
23122;DHT22;11730;51.248;22.534;2022-08-03T01:11:50;20.90;93.20
23122;DHT22;11730;51.248;22.534;2022-08-03T01:14:33;20.70;93.80
23122;DHT22;11730;51.248;22.534;2022-08-03T01:28:32;20.80;95.30
23122;DHT22;11730;51.248;22.534;2022-08-03T01:31:07;20.70;95.60
23122;DHT22;11730;51.248;22.534;2022-08-03T01:33:42;20.80;95.40
23122;DHT22;11730;51.248;22.534;2022-08-03T01:36:24;20.60;95.90
23122;DHT22;11730;51.248;22.534;2022-08-03T01:38:57;20.60;96.10
23122;DHT22;11730;51.248;22.534;2022-08-03T01:41:30;20.40;96.90
23122;DHT22;11730;51.248;22.534;2022-08-03T01:44:01;20.30;97.20
23122;DHT22;11730;51.248;22.534;2022-08-03T01:46:49;20.40;97.80
23122;DHT22;11730;51.248;22.534;2022-08-03T01:49:17;20.40;97.90
23122;DHT22;11730;51.248;22.534;2022-08-03T01:51:46;20.30;98.10
23122;DHT22;11730;51.248;22.534;2022-08-03T01:54:34;20.40;97.90
23122;DHT22;11730;51.248;22.534;2022-08-03T01:57:02;20.40;97.80
23122;DHT22;11730;51.248;22.534;2022-08-03T01:59:30;20.40;97.80
23122;DHT22;11730;51.248;22.534;2022-08-03T02:01:59;20.40;97.80
23122;DHT22;11730;51.248;22.534;2022-08-03T02:04:48;20.40;97.70
23122;DHT22;11730;51.248;22.534;2022-08-03T02:07:16;20.30;98.10
23122;DHT22;11730;51.248;22.534;2022-08-03T02:09:46;20.30;98.50
23122;DHT22;11730;51.248;22.534;2022-08-03T02:12:15;20.30;98.70
23122;DHT22;11730;51.248;22.534;2022-08-03T02:14:43;20.20;99.20
23122;DHT22;11730;51.248;22.534;2022-08-03T02:17:12;20.40;98.80
23122;DHT22;11730;51.248;22.534;2022-08-03T02:19:41;20.40;98.50
23122;DHT22;11730;51.248;22.534;2022-08-03T02:22:09;20.50;98.10
23122;DHT22;11730;51.248;22.534;2022-08-03T02:24:37;20.30;98.40
23122;DHT22;11730;51.248;22.534;2022-08-03T02:27:13;20.30;98.60
23122;DHT22;11730;51.248;22.534;2022-08-03T02:29:46;20.30;98.90
23122;DHT22;11730;51.248;22.534;2022-08-03T02:32:18;20.30;99.10
23122;DHT22;11730;51.248;22.534;2022-08-03T02:34:49;20.20;99.10
23122;DHT22;11730;51.248;22.534;2022-08-03T02:37:18;20.20;99.20
23122;DHT22;11730;51.248;22.534;2022-08-03T02:39:48;20.10;99.90
23122;DHT22;11730;51.248;22.534;2022-08-03T02:42:20;20.10;99.80
23122;DHT22;11730;51.248;22.534;2022-08-03T02:44:50;20.00;99.90
23122;DHT22;11730;51.248;22.534;2022-08-03T02:47:19;20.00;99.90
23122;DHT22;11730;51.248;22.534;2022-08-03T02:49:48;20.10;99.90
23122;DHT22;11730;51.248;22.534;2022-08-03T02:52:27;20.10;99.90
23122;DHT22;11730;51.248;22.534;2022-08-03T02:54:58;20.10;99.90
23122;DHT22;11730;51.248;22.534;2022-08-03T02:57:26;20.10;99.90
23122;DHT22;11730;51.248;22.534;2022-08-03T02:59:54;20.00;99.90
23122;DHT22;11730;51.248;22.534;2022-08-03T03:02:24;20.00;99.90
23122;DHT22;11730;51.248;22.534;2022-08-03T03:04:52;19.90;99.90
23122;DHT22;11730;51.248;22.534;2022-08-03T03:07:41;19.90;99.90
23122;DHT22;11730;51.248;22.534;2022-08-03T03:10:22;20.10;99.90
23122;DHT22;11730;51.248;22.534;2022-08-03T03:12:54;20.20;99.90
23122;DHT22;11730;51.248;22.534;2022-08-03T03:15:23;20.20;99.90
23122;DHT22;11730;51.248;22.534;2022-08-03T03:17:52;20.20;99.90
23122;DHT22;11730;51.248;22.534;2022-08-03T03:20:20;20.10;99.90
23122;DHT22;11730;51.248;22.534;2022-08-03T03:22:58;20.20;99.90
23122;DHT22;11730;51.248;22.534;2022-08-03T03:25:27;20.10;99.90
23122;DHT22;11730;51.248;22.534;2022-08-03T03:27:57;20.30;99.90
23122;DHT22;11730;51.248;22.534;2022-08-03T03:30:25;20.00;99.90
23122;DHT22;11730;51.248;22.534;2022-08-03T03:32:53;19.90;99.90
23122;DHT22;11730;51.248;22.534;2022-08-03T03:35:20;19.90;99.90
23122;DHT22;11730;51.248;22.534;2022-08-03T03:37:47;20.10;99.90
23122;DHT22;11730;51.248;22.534;2022-08-03T03:40:14;20.00;99.90
23122;DHT22;11730;51.248;22.534;2022-08-03T03:42:41;19.90;99.90
23122;DHT22;11730;51.248;22.534;2022-08-03T03:45:09;19.90;99.90
23122;DHT22;11730;51.248;22.534;2022-08-03T03:47:37;19.90;99.90
23122;DHT22;11730;51.248;22.534;2022-08-03T03:50:05;19.90;99.90
23122;DHT22;11730;51.248;22.534;2022-08-03T03:52:33;20.10;99.90
23122;DHT22;11730;51.248;22.534;2022-08-03T03:54:59;20.20;99.90
23122;DHT22;11730;51.248;22.534;2022-08-03T03:57:27;20.20;99.90
23122;DHT22;11730;51.248;22.534;2022-08-03T03:59:55;20.30;99.90
23122;DHT22;11730;51.248;22.534;2022-08-03T04:02:22;20.30;99.90
23122;DHT22;11730;51.248;22.534;2022-08-03T04:04:49;20.30;99.90
23122;DHT22;11730;51.248;22.534;2022-08-03T04:07:54;20.30;99.90
23122;DHT22;11730;51.248;22.534;2022-08-03T04:10:46;20.30;99.90
23122;DHT22;11730;51.248;22.534;2022-08-03T04:16:17;20.30;99.90
23122;DHT22;11730;51.248;22.534;2022-08-03T04:18:49;20.30;99.90
23122;DHT22;11730;51.248;22.534;2022-08-03T04:21:18;20.40;99.90
23122;DHT22;11730;51.248;22.534;2022-08-03T04:23:48;20.60;99.90
23122;DHT22;11730;51.248;22.534;2022-08-03T04:26:21;20.50;99.90
23122;DHT22;11730;51.248;22.534;2022-08-03T04:28:48;20.60;99.90
23122;DHT22;11730;51.248;22.534;2022-08-03T04:31:20;20.60;99.90
23122;DHT22;11730;51.248;22.534;2022-08-03T04:33:48;20.60;99.90
23122;DHT22;11730;51.248;22.534;2022-08-03T04:36:20;20.80;99.60
23122;DHT22;11730;51.248;22.534;2022-08-03T04:41:31;20.50;99.80
23122;DHT22;11730;51.248;22.534;2022-08-03T04:44:23;20.50;99.90
23122;DHT22;11730;51.248;22.534;2022-08-03T04:46:55;20.70;99.80
23122;DHT22;11730;51.248;22.534;2022-08-03T04:49:22;20.80;99.20
23122;DHT22;11730;51.248;22.534;2022-08-03T04:51:50;20.70;99.20
23122;DHT22;11730;51.248;22.534;2022-08-03T04:54:17;20.80;99.60
23122;DHT22;11730;51.248;22.534;2022-08-03T04:56:44;20.70;99.60
23122;DHT22;11730;51.248;22.534;2022-08-03T04:59:11;20.70;99.70
23122;DHT22;11730;51.248;22.534;2022-08-03T05:01:39;20.70;99.90
23122;DHT22;11730;51.248;22.534;2022-08-03T05:04:07;20.90;99.50
23122;DHT22;11730;51.248;22.534;2022-08-03T05:06:35;21.00;99.50
23122;DHT22;11730;51.248;22.534;2022-08-03T05:09:13;21.10;99.20
23122;DHT22;11730;51.248;22.534;2022-08-03T05:12:00;21.10;99.10
23122;DHT22;11730;51.248;22.534;2022-08-03T05:14:27;21.10;99.30
23122;DHT22;11730;51.248;22.534;2022-08-03T05:16:54;21.10;99.60
23122;DHT22;11730;51.248;22.534;2022-08-03T05:19:21;21.30;99.40
23122;DHT22;11730;51.248;22.534;2022-08-03T05:21:48;21.40;98.70
23122;DHT22;11730;51.248;22.534;2022-08-03T05:24:18;21.50;98.70
23122;DHT22;11730;51.248;22.534;2022-08-03T05:26:45;21.50;98.90
23122;DHT22;11730;51.248;22.534;2022-08-03T05:29:12;21.40;98.80
23122;DHT22;11730;51.248;22.534;2022-08-03T05:31:39;21.40;99.20
23122;DHT22;11730;51.248;22.534;2022-08-03T05:34:06;21.40;99.00
23122;DHT22;11730;51.248;22.534;2022-08-03T05:36:34;21.40;99.00
23122;DHT22;11730;51.248;22.534;2022-08-03T05:39:00;21.40;99.30
23122;DHT22;11730;51.248;22.534;2022-08-03T05:41:28;21.20;99.70
23122;DHT22;11730;51.248;22.534;2022-08-03T05:44:03;21.20;99.90
23122;DHT22;11730;51.248;22.534;2022-08-03T05:46:30;21.10;99.90
23122;DHT22;11730;51.248;22.534;2022-08-03T05:48:57;21.30;99.80
23122;DHT22;11730;51.248;22.534;2022-08-03T05:51:24;21.20;99.80
23122;DHT22;11730;51.248;22.534;2022-08-03T05:53:51;21.30;99.00
23122;DHT22;11730;51.248;22.534;2022-08-03T05:56:21;21.20;99.20
23122;DHT22;11730;51.248;22.534;2022-08-03T05:58:50;21.50;98.50
23122;DHT22;11730;51.248;22.534;2022-08-03T06:01:18;21.60;98.50
23122;DHT22;11730;51.248;22.534;2022-08-03T06:03:48;21.50;98.20
23122;DHT22;11730;51.248;22.534;2022-08-03T06:06:16;21.60;98.10
23122;DHT22;11730;51.248;22.534;2022-08-03T06:08:44;21.70;97.30
23122;DHT22;11730;51.248;22.534;2022-08-03T06:11:11;21.80;97.20
23122;DHT22;11730;51.248;22.534;2022-08-03T06:13:38;21.80;96.50
23122;DHT22;11730;51.248;22.534;2022-08-03T06:16:06;21.90;96.40
23122;DHT22;11730;51.248;22.534;2022-08-03T06:18:33;21.70;96.90
23122;DHT22;11730;51.248;22.534;2022-08-03T06:21:01;21.80;96.70
23122;DHT22;11730;51.248;22.534;2022-08-03T06:23:42;22.00;96.30
23122;DHT22;11730;51.248;22.534;2022-08-03T06:26:24;22.10;96.40
23122;DHT22;11730;51.248;22.534;2022-08-03T06:28:52;22.10;96.60
23122;DHT22;11730;51.248;22.534;2022-08-03T06:31:22;22.10;96.20
23122;DHT22;11730;51.248;22.534;2022-08-03T06:33:50;22.30;95.80
23122;DHT22;11730;51.248;22.534;2022-08-03T06:36:36;22.40;95.90
23122;DHT22;11730;51.248;22.534;2022-08-03T06:39:03;22.30;95.90
23122;DHT22;11730;51.248;22.534;2022-08-03T06:41:30;22.30;95.90
23122;DHT22;11730;51.248;22.534;2022-08-03T06:44:03;22.50;96.20
23122;DHT22;11730;51.248;22.534;2022-08-03T06:46:31;22.60;96.10
23122;DHT22;11730;51.248;22.534;2022-08-03T06:48:58;22.70;95.30
23122;DHT22;11730;51.248;22.534;2022-08-03T06:51:25;22.90;95.60
23122;DHT22;11730;51.248;22.534;2022-08-03T06:54:12;22.90;95.30
23122;DHT22;11730;51.248;22.534;2022-08-03T06:56:39;23.00;94.80
23122;DHT22;11730;51.248;22.534;2022-08-03T06:59:06;23.10;94.30
23122;DHT22;11730;51.248;22.534;2022-08-03T07:01:32;23.00;94.80
23122;DHT22;11730;51.248;22.534;2022-08-03T07:03:59;23.10;94.40
23122;DHT22;11730;51.248;22.534;2022-08-03T07:06:26;23.20;93.70
23122;DHT22;11730;51.248;22.534;2022-08-03T07:08:53;23.20;93.80
23122;DHT22;11730;51.248;22.534;2022-08-03T07:11:25;23.20;92.80
23122;DHT22;11730;51.248;22.534;2022-08-03T07:13:52;23.30;92.90
23122;DHT22;11730;51.248;22.534;2022-08-03T07:16:19;23.40;92.50
23122;DHT22;11730;51.248;22.534;2022-08-03T07:18:46;23.50;91.10
23122;DHT22;11730;51.248;22.534;2022-08-03T07:21:13;23.60;91.70
23122;DHT22;11730;51.248;22.534;2022-08-03T07:23:41;23.80;91.10
23122;DHT22;11730;51.248;22.534;2022-08-03T07:26:08;24.10;91.30
23122;DHT22;11730;51.248;22.534;2022-08-03T07:28:35;24.40;90.20
23122;DHT22;11730;51.248;22.534;2022-08-03T07:31:03;25.00;90.00
23122;DHT22;11730;51.248;22.534;2022-08-03T07:33:30;25.50;89.20
23122;DHT22;11730;51.248;22.534;2022-08-03T07:35:57;26.00;86.00
23122;DHT22;11730;51.248;22.534;2022-08-03T07:38:24;25.90;86.30
23122;DHT22;11730;51.248;22.534;2022-08-03T07:40:50;26.00;85.90
23122;DHT22;11730;51.248;22.534;2022-08-03T07:43:19;26.00;85.40
23122;DHT22;11730;51.248;22.534;2022-08-03T07:45:46;26.40;85.00
23122;DHT22;11730;51.248;22.534;2022-08-03T07:48:12;26.70;86.10
23122;DHT22;11730;51.248;22.534;2022-08-03T07:50:39;26.70;82.30
23122;DHT22;11730;51.248;22.534;2022-08-03T07:53:06;27.00;83.60
23122;DHT22;11730;51.248;22.534;2022-08-03T07:55:33;27.30;81.90
23122;DHT22;11730;51.248;22.534;2022-08-03T07:58:09;27.10;80.90
23122;DHT22;11730;51.248;22.534;2022-08-03T08:00:38;27.20;80.20
23122;DHT22;11730;51.248;22.534;2022-08-03T08:03:05;27.30;80.00
23122;DHT22;11730;51.248;22.534;2022-08-03T08:05:33;27.70;78.50
23122;DHT22;11730;51.248;22.534;2022-08-03T08:08:00;27.40;78.40
23122;DHT22;11730;51.248;22.534;2022-08-03T08:10:27;28.10;79.40
23122;DHT22;11730;51.248;22.534;2022-08-03T08:12:55;26.50;76.90
23122;DHT22;11730;51.248;22.534;2022-08-03T08:15:22;28.60;77.70
23122;DHT22;11730;51.248;22.534;2022-08-03T08:17:51;28.90;75.90
23122;DHT22;11730;51.248;22.534;2022-08-03T08:20:25;29.00;76.10
23122;DHT22;11730;51.248;22.534;2022-08-03T08:23:07;29.40;73.80
23122;DHT22;11730;51.248;22.534;2022-08-03T08:25:54;29.70;73.30
23122;DHT22;11730;51.248;22.534;2022-08-03T08:28:22;29.90;72.00
23122;DHT22;11730;51.248;22.534;2022-08-03T08:30:58;29.40;73.40
23122;DHT22;11730;51.248;22.534;2022-08-03T08:33:25;28.50;73.10
23122;DHT22;11730;51.248;22.534;2022-08-03T08:36:12;28.20;74.50
23122;DHT22;11730;51.248;22.534;2022-08-03T08:38:41;28.70;72.60
23122;DHT22;11730;51.248;22.534;2022-08-03T08:41:10;27.40;74.80
23122;DHT22;11730;51.248;22.534;2022-08-03T08:43:39;27.50;75.80
23122;DHT22;11730;51.248;22.534;2022-08-03T08:46:07;27.40;77.90
23122;DHT22;11730;51.248;22.534;2022-08-03T08:48:40;27.90;77.80
23122;DHT22;11730;51.248;22.534;2022-08-03T08:51:08;28.40;74.50
23122;DHT22;11730;51.248;22.534;2022-08-03T08:53:40;27.70;75.30
23122;DHT22;11730;51.248;22.534;2022-08-03T08:56:13;27.50;78.20
23122;DHT22;11730;51.248;22.534;2022-08-03T08:58:48;27.50;78.00
23122;DHT22;11730;51.248;22.534;2022-08-03T09:01:18;27.60;75.90
23122;DHT22;11730;51.248;22.534;2022-08-03T09:03:46;27.80;75.90
23122;DHT22;11730;51.248;22.534;2022-08-03T09:06:13;27.60;73.80
23122;DHT22;11730;51.248;22.534;2022-08-03T09:08:43;27.70;75.90
23122;DHT22;11730;51.248;22.534;2022-08-03T09:11:11;27.70;75.20
23122;DHT22;11730;51.248;22.534;2022-08-03T09:13:38;28.00;74.00
23122;DHT22;11730;51.248;22.534;2022-08-03T09:16:15;28.50;73.60
23122;DHT22;11730;51.248;22.534;2022-08-03T09:18:45;28.50;72.10
23122;DHT22;11730;51.248;22.534;2022-08-03T09:21:13;29.10;73.80
23122;DHT22;11730;51.248;22.534;2022-08-03T09:23:59;29.80;70.90
23122;DHT22;11730;51.248;22.534;2022-08-03T09:26:30;29.30;67.80
23122;DHT22;11730;51.248;22.534;2022-08-03T09:29:18;29.30;68.50
23122;DHT22;11730;51.248;22.534;2022-08-03T09:31:45;29.30;70.90
23122;DHT22;11730;51.248;22.534;2022-08-03T09:34:14;29.20;70.20
23122;DHT22;11730;51.248;22.534;2022-08-03T09:36:46;29.50;70.60
23122;DHT22;11730;51.248;22.534;2022-08-03T09:39:24;29.70;68.20
23122;DHT22;11730;51.248;22.534;2022-08-03T09:42:14;29.40;67.50
23122;DHT22;11730;51.248;22.534;2022-08-03T09:44:46;30.40;69.00
23122;DHT22;11730;51.248;22.534;2022-08-03T09:47:35;30.80;69.00
23122;DHT22;11730;51.248;22.534;2022-08-03T09:50:10;31.30;68.20
23122;DHT22;11730;51.248;22.534;2022-08-03T09:52:39;31.50;66.10
23122;DHT22;11730;51.248;22.534;2022-08-03T09:55:18;30.00;64.90
23122;DHT22;11730;51.248;22.534;2022-08-03T09:58:06;29.80;67.10
23122;DHT22;11730;51.248;22.534;2022-08-03T10:01:08;30.00;66.30
23122;DHT22;11730;51.248;22.534;2022-08-03T10:03:57;29.30;68.50
23122;DHT22;11730;51.248;22.534;2022-08-03T10:06:30;28.30;69.20
23122;DHT22;11730;51.248;22.534;2022-08-03T10:09:08;27.90;68.90
23122;DHT22;11730;51.248;22.534;2022-08-03T10:11:37;28.70;67.60
23122;DHT22;11730;51.248;22.534;2022-08-03T10:14:09;28.80;67.20
23122;DHT22;11730;51.248;22.534;2022-08-03T10:16:38;29.30;67.90
23122;DHT22;11730;51.248;22.534;2022-08-03T10:19:07;29.40;68.60
23122;DHT22;11730;51.248;22.534;2022-08-03T10:21:36;29.10;68.60
23122;DHT22;11730;51.248;22.534;2022-08-03T10:24:06;29.10;69.30
23122;DHT22;11730;51.248;22.534;2022-08-03T10:26:40;28.80;69.10
23122;DHT22;11730;51.248;22.534;2022-08-03T10:29:21;28.50;70.80
23122;DHT22;11730;51.248;22.534;2022-08-03T10:31:53;28.20;72.00
23122;DHT22;11730;51.248;22.534;2022-08-03T10:34:33;27.90;71.70
23122;DHT22;11730;51.248;22.534;2022-08-03T10:37:04;27.40;71.00
23122;DHT22;11730;51.248;22.534;2022-08-03T10:39:34;27.50;72.70
23122;DHT22;11730;51.248;22.534;2022-08-03T10:42:02;27.50;72.80
23122;DHT22;11730;51.248;22.534;2022-08-03T10:44:41;27.40;74.30
23122;DHT22;11730;51.248;22.534;2022-08-03T10:47:08;27.80;73.30
23122;DHT22;11730;51.248;22.534;2022-08-03T10:49:36;27.60;72.40
23122;DHT22;11730;51.248;22.534;2022-08-03T10:52:04;27.60;73.20
23122;DHT22;11730;51.248;22.534;2022-08-03T10:54:51;27.40;71.90
23122;DHT22;11730;51.248;22.534;2022-08-03T10:57:43;27.00;71.80
23122;DHT22;11730;51.248;22.534;2022-08-03T11:00:16;27.10;71.70
23122;DHT22;11730;51.248;22.534;2022-08-03T11:03:03;27.60;72.20
23122;DHT22;11730;51.248;22.534;2022-08-03T11:05:34;28.40;71.10
23122;DHT22;11730;51.248;22.534;2022-08-03T11:08:28;29.00;72.10
23122;DHT22;11730;51.248;22.534;2022-08-03T11:10:57;28.90;71.10
23122;DHT22;11730;51.248;22.534;2022-08-03T11:13:26;28.80;71.90
23122;DHT22;11730;51.248;22.534;2022-08-03T11:15:58;28.90;72.00
23122;DHT22;11730;51.248;22.534;2022-08-03T11:18:29;28.70;71.60
23122;DHT22;11730;51.248;22.534;2022-08-03T11:20:58;28.80;70.50
23122;DHT22;11730;51.248;22.534;2022-08-03T11:23:45;29.40;69.60
23122;DHT22;11730;51.248;22.534;2022-08-03T11:26:32;30.10;67.20
23122;DHT22;11730;51.248;22.534;2022-08-03T11:29:28;30.10;68.10
23122;DHT22;11730;51.248;22.534;2022-08-03T11:31:56;30.10;67.80
23122;DHT22;11730;51.248;22.534;2022-08-03T11:34:23;29.60;68.70
23122;DHT22;11730;51.248;22.534;2022-08-03T11:37:20;30.30;68.60
23122;DHT22;11730;51.248;22.534;2022-08-03T11:39:50;31.50;67.30
23122;DHT22;11730;51.248;22.534;2022-08-03T11:44:54;32.40;64.00
23122;DHT22;11730;51.248;22.534;2022-08-03T11:47:22;32.80;62.60
23122;DHT22;11730;51.248;22.534;2022-08-03T11:49:51;31.80;60.90
23122;DHT22;11730;51.248;22.534;2022-08-03T11:52:19;31.10;60.90
23122;DHT22;11730;51.248;22.534;2022-08-03T11:54:54;31.00;61.80
23122;DHT22;11730;51.248;22.534;2022-08-03T11:57:29;32.10;62.80
23122;DHT22;11730;51.248;22.534;2022-08-03T12:00:30;32.20;61.60
23122;DHT22;11730;51.248;22.534;2022-08-03T12:03:06;34.10;62.00
23122;DHT22;11730;51.248;22.534;2022-08-03T12:05:38;35.50;59.90
23122;DHT22;11730;51.248;22.534;2022-08-03T12:08:07;36.20;58.90
23122;DHT22;11730;51.248;22.534;2022-08-03T12:10:35;36.60;58.20
23122;DHT22;11730;51.248;22.534;2022-08-03T12:13:03;36.60;57.10
23122;DHT22;11730;51.248;22.534;2022-08-03T12:15:54;36.10;55.80
23122;DHT22;11730;51.248;22.534;2022-08-03T12:18:22;36.00;56.50
23122;DHT22;11730;51.248;22.534;2022-08-03T12:20:51;35.30;57.20
23122;DHT22;11730;51.248;22.534;2022-08-03T12:23:19;34.90;57.00
23122;DHT22;11730;51.248;22.534;2022-08-03T12:25:47;34.40;57.00
23122;DHT22;11730;51.248;22.534;2022-08-03T12:28:16;33.60;57.20
23122;DHT22;11730;51.248;22.534;2022-08-03T12:31:07;32.20;58.00
23122;DHT22;11730;51.248;22.534;2022-08-03T12:36:20;31.00;61.00
23122;DHT22;11730;51.248;22.534;2022-08-03T12:38:56;31.00;61.40
23122;DHT22;11730;51.248;22.534;2022-08-03T12:41:31;30.80;62.10
23122;DHT22;11730;51.248;22.534;2022-08-03T12:44:03;30.30;62.20
23122;DHT22;11730;51.248;22.534;2022-08-03T12:46:40;29.90;62.70
23122;DHT22;11730;51.248;22.534;2022-08-03T12:49:15;29.30;63.90
23122;DHT22;11730;51.248;22.534;2022-08-03T12:56:57;31.90;60.50
23122;DHT22;11730;51.248;22.534;2022-08-03T12:59:27;31.50;59.90
23122;DHT22;11730;51.248;22.534;2022-08-03T13:02:02;31.70;60.20
23122;DHT22;11730;51.248;22.534;2022-08-03T13:04:35;31.00;59.30
23122;DHT22;11730;51.248;22.534;2022-08-03T13:07:04;31.50;59.40
23122;DHT22;11730;51.248;22.534;2022-08-03T13:09:44;31.90;60.40
23122;DHT22;11730;51.248;22.534;2022-08-03T13:12:16;32.90;58.70
23122;DHT22;11730;51.248;22.534;2022-08-03T13:14:46;32.50;59.40
23122;DHT22;11730;51.248;22.534;2022-08-03T13:17:13;32.20;59.80
23122;DHT22;11730;51.248;22.534;2022-08-03T13:19:43;32.90;60.30
23122;DHT22;11730;51.248;22.534;2022-08-03T13:22:14;33.90;57.90
23122;DHT22;11730;51.248;22.534;2022-08-03T13:24:43;34.70;56.70
23122;DHT22;11730;51.248;22.534;2022-08-03T13:27:10;34.30;54.20
23122;DHT22;11730;51.248;22.534;2022-08-03T13:29:57;33.90;55.80
23122;DHT22;11730;51.248;22.534;2022-08-03T13:32:24;34.10;59.00
23122;DHT22;11730;51.248;22.534;2022-08-03T13:34:51;34.70;58.40
23122;DHT22;11730;51.248;22.534;2022-08-03T13:37:18;34.70;57.40
23122;DHT22;11730;51.248;22.534;2022-08-03T13:39:45;33.90;56.20
23122;DHT22;11730;51.248;22.534;2022-08-03T13:42:26;34.30;57.00
23122;DHT22;11730;51.248;22.534;2022-08-03T13:44:53;34.20;56.90
23122;DHT22;11730;51.248;22.534;2022-08-03T13:47:20;34.80;56.70
23122;DHT22;11730;51.248;22.534;2022-08-03T13:49:48;35.10;56.10
23122;DHT22;11730;51.248;22.534;2022-08-03T13:52:32;35.30;55.00
23122;DHT22;11730;51.248;22.534;2022-08-03T13:55:00;36.70;56.70
23122;DHT22;11730;51.248;22.534;2022-08-03T13:57:27;35.50;54.80
23122;DHT22;11730;51.248;22.534;2022-08-03T14:00:15;35.40;55.20
23122;DHT22;11730;51.248;22.534;2022-08-03T14:02:58;35.50;55.60
23122;DHT22;11730;51.248;22.534;2022-08-03T14:05:38;35.40;55.00
23122;DHT22;11730;51.248;22.534;2022-08-03T14:08:05;35.30;53.80
23122;DHT22;11730;51.248;22.534;2022-08-03T14:10:34;33.20;54.00
23122;DHT22;11730;51.248;22.534;2022-08-03T14:13:03;33.00;56.60
23122;DHT22;11730;51.248;22.534;2022-08-03T14:15:30;33.60;55.70
23122;DHT22;11730;51.248;22.534;2022-08-03T14:18:03;33.10;56.30
23122;DHT22;11730;51.248;22.534;2022-08-03T14:20:31;33.90;55.70
23122;DHT22;11730;51.248;22.534;2022-08-03T14:23:04;33.80;55.30
23122;DHT22;11730;51.248;22.534;2022-08-03T14:25:32;33.90;54.60
23122;DHT22;11730;51.248;22.534;2022-08-03T14:28:17;33.90;55.40
23122;DHT22;11730;51.248;22.534;2022-08-03T14:30:44;33.60;55.60
23122;DHT22;11730;51.248;22.534;2022-08-03T14:33:11;33.20;56.90
23122;DHT22;11730;51.248;22.534;2022-08-03T14:35:39;33.70;56.90
23122;DHT22;11730;51.248;22.534;2022-08-03T14:38:06;33.80;55.40
23122;DHT22;11730;51.248;22.534;2022-08-03T14:40:33;33.60;54.60
23122;DHT22;11730;51.248;22.534;2022-08-03T14:43:00;33.40;54.50
23122;DHT22;11730;51.248;22.534;2022-08-03T14:45:28;32.80;54.90
23122;DHT22;11730;51.248;22.534;2022-08-03T14:47:55;32.50;57.30
23122;DHT22;11730;51.248;22.534;2022-08-03T14:50:42;32.30;57.00
23122;DHT22;11730;51.248;22.534;2022-08-03T14:53:17;32.20;57.50
23122;DHT22;11730;51.248;22.534;2022-08-03T14:55:44;32.40;57.80
23122;DHT22;11730;51.248;22.534;2022-08-03T14:58:17;32.30;57.30
23122;DHT22;11730;51.248;22.534;2022-08-03T15:00:46;33.00;56.10
23122;DHT22;11730;51.248;22.534;2022-08-03T15:03:13;33.30;54.40
23122;DHT22;11730;51.248;22.534;2022-08-03T15:05:43;33.00;56.80
23122;DHT22;11730;51.248;22.534;2022-08-03T15:08:10;32.30;56.60
23122;DHT22;11730;51.248;22.534;2022-08-03T15:10:37;32.50;57.60
23122;DHT22;11730;51.248;22.534;2022-08-03T15:13:10;32.50;55.10
23122;DHT22;11730;51.248;22.534;2022-08-03T15:15:37;32.60;56.60
23122;DHT22;11730;51.248;22.534;2022-08-03T15:18:04;32.20;55.80
23122;DHT22;11730;51.248;22.534;2022-08-03T15:20:31;32.30;56.20
23122;DHT22;11730;51.248;22.534;2022-08-03T15:23:11;31.70;55.90
23122;DHT22;11730;51.248;22.534;2022-08-03T15:25:38;31.80;57.70
23122;DHT22;11730;51.248;22.534;2022-08-03T15:28:25;31.70;58.30
23122;DHT22;11730;51.248;22.534;2022-08-03T15:30:52;31.60;57.90
23122;DHT22;11730;51.248;22.534;2022-08-03T15:33:19;31.30;58.70
23122;DHT22;11730;51.248;22.534;2022-08-03T15:35:46;31.40;59.70
23122;DHT22;11730;51.248;22.534;2022-08-03T15:38:13;31.50;59.40
23122;DHT22;11730;51.248;22.534;2022-08-03T15:40:40;31.10;59.50
23122;DHT22;11730;51.248;22.534;2022-08-03T15:43:07;30.80;59.10
23122;DHT22;11730;51.248;22.534;2022-08-03T15:45:35;31.10;59.80
23122;DHT22;11730;51.248;22.534;2022-08-03T15:48:06;31.40;58.30
23122;DHT22;11730;51.248;22.534;2022-08-03T15:50:33;31.10;58.10
23122;DHT22;11730;51.248;22.534;2022-08-03T15:53:00;30.80;60.40
23122;DHT22;11730;51.248;22.534;2022-08-03T15:55:27;30.40;58.30
23122;DHT22;11730;51.248;22.534;2022-08-03T15:57:54;30.30;60.30
23122;DHT22;11730;51.248;22.534;2022-08-03T16:00:42;30.50;59.40
23122;DHT22;11730;51.248;22.534;2022-08-03T16:03:09;30.70;59.70
23122;DHT22;11730;51.248;22.534;2022-08-03T16:05:36;30.40;59.60
23122;DHT22;11730;51.248;22.534;2022-08-03T16:08:03;30.40;59.90
23122;DHT22;11730;51.248;22.534;2022-08-03T16:10:37;30.50;59.50
23122;DHT22;11730;51.248;22.534;2022-08-03T16:13:05;30.50;59.00